Time;durP1;ratioP1;P1;durP2;ratioP2;P2;SDS_P1;SDS_P2;PMS_P1;PMS_P2;Temp;Humidity;BMP_temperature;BMP_pressure;BME280_temperature;BME280_humidity;BME280_pressure;Samples;Min_cycle;Max_cycle;Signal;HPM_P1;HPM_P2
2023/11/29 00:00:15;;;;;;;;;;;;;;;15.73;46.81;98801.19;4970113;28;1124;-44
2023/11/29 00:02:40;;;;;;;;;;;;;;;15.53;47.25;98812.78;4964201;28;1066;-46
2023/11/29 00:05:06;;;;;;;;;;;;;;;15.26;47.65;98826.97;4980583;28;1095;-44
2023/11/29 00:07:32;;;;;;;;;;;;;;;15.25;47.60;98838.53;4977703;28;1993;-44
2023/11/29 00:09:57;;;;;;;;;;;;;;;15.20;48.68;98851.41;4970267;28;1251;-48
2023/11/29 00:12:23;;;;;;;;;;;;;;;16.13;46.70;98846.72;4974414;28;1143;-48
2023/11/29 00:14:48;;;;;;;;;;;;;;;16.45;45.74;98839.91;4981091;28;1076;-47
2023/11/29 00:17:14;;;;;;;;;;;;;;;16.39;46.03;98857.31;4978249;28;1055;-47
2023/11/29 00:19:43;;;;;;;;;;;;;;;16.43;45.89;98864.97;4970328;28;1168;-46
2023/11/29 00:22:11;;;;;;;;;;;;;;;15.85;47.13;98860.09;4980005;28;1131;-45
2023/11/29 00:24:37;;;;;;;;;;;;;;;15.43;48.02;98871.16;4970382;28;1124;-48
2023/11/29 00:27:04;;;;;;;;;;;;;;;15.29;48.72;98885.78;4964053;28;1919;-46
2023/11/29 00:29:29;;;;;;;;;;;;;;;15.53;48.10;98896.78;4979972;28;1120;-46
2023/11/29 00:31:55;;;;;;;;;;;;;;;15.63;47.79;98902.81;4980114;28;1121;-48
2023/11/29 00:34:20;;;;;;;;;;;;;;;15.86;46.99;98912.97;4980092;28;1037;-43
2023/11/29 00:36:48;;;;;;;;;;;;;;;16.24;46.00;98920.75;4971710;28;1092;-46
2023/11/29 00:39:14;;;;;;;;;;;;;;;16.35;45.70;98927.59;4968986;28;1091;-43
2023/11/29 00:41:39;;;;;;;;;;;;;;;16.72;44.88;98941.59;4963993;28;1056;-46
2023/11/29 00:44:05;;;;;;;;;;;;;;;16.89;44.47;98941.69;4970713;28;1044;-46
2023/11/29 00:46:30;;;;;;;;;;;;;;;16.98;44.28;98942.56;4976929;28;1117;-47
2023/11/29 00:48:56;;;;;;;;;;;;;;;17.05;44.11;98940.09;4969139;28;1905;-46
2023/11/29 00:51:21;;;;;;;;;;;;;;;16.60;45.03;98935.72;4974979;28;1241;-43
2023/11/29 00:53:47;;;;;;;;;;;;;;;16.24;45.83;98936.66;4975333;28;1037;-44
2023/11/29 00:56:12;;;;;;;;;;;;;;;15.57;47.34;98940.53;4973751;28;1085;-43
2023/11/29 00:58:38;;;;;;;;;;;;;;;15.37;47.53;98947.75;4970228;28;1196;-43
2023/11/29 01:01:03;;;;;;;;;;;;;;;15.23;48.24;98949.13;4968043;28;997;-43
2023/11/29 01:03:29;;;;;;;;;;;;;;;15.81;47.19;98959.47;4970209;28;1113;-48
2023/11/29 01:05:54;;;;;;;;;;;;;;;16.40;45.89;98959.81;4979544;28;1148;-47
2023/11/29 01:08:25;;;;;;;;;;;;;;;16.55;45.65;98975.16;4979484;28;1967;-43
2023/11/29 01:10:51;;;;;;;;;;;;;;;16.24;46.17;98976.47;4961958;28;1163;-45
2023/11/29 01:13:17;;;;;;;;;;;;;;;16.04;46.48;98970.50;4960497;28;1187;-47
2023/11/29 01:15:42;;;;;;;;;;;;;;;15.47;47.68;98960.94;4975966;28;1037;-44
2023/11/29 01:18:08;;;;;;;;;;;;;;;15.39;47.92;98967.00;4969903;28;1084;-46
2023/11/29 01:20:33;;;;;;;;;;;;;;;15.38;48.21;98971.47;4971901;28;1141;-46
2023/11/29 01:22:59;;;;;;;;;;;;;;;15.66;47.42;98979.38;4970309;28;1165;-47
2023/11/29 01:25:24;;;;;;;;;;;;;;;15.60;47.48;98979.97;4973042;28;1420;-45
2023/11/29 01:27:50;;;;;;;;;;;;;;;16.04;46.48;98981.09;4967992;28;1970;-46
2023/11/29 01:30:16;;;;;;;;;;;;;;;16.40;45.49;98989.00;4963692;28;1017;-45
2023/11/29 01:32:41;;;;;;;;;;;;;;;16.57;45.22;98998.91;4968870;28;1105;-45
2023/11/29 01:35:07;;;;;;;;;;;;;;;16.84;44.75;98989.97;4963307;28;1064;-48
2023/11/29 01:37:34;;;;;;;;;;;;;;;16.86;44.69;98998.63;4967547;28;863;-46
2023/11/29 01:39:59;;;;;;;;;;;;;;;17.02;44.06;99003.16;4962686;28;1093;-50
2023/11/29 01:42:25;;;;;;;;;;;;;;;17.15;43.89;99003.75;4969695;28;1077;-45
2023/11/29 01:44:51;;;;;;;;;;;;;;;16.68;44.89;98993.38;4971544;28;1482;-47
2023/11/29 01:47:16;;;;;;;;;;;;;;;16.34;45.66;98992.28;4969078;28;1903;-48
2023/11/29 01:49:42;;;;;;;;;;;;;;;15.66;47.05;98981.22;4967094;28;1268;-44
2023/11/29 01:52:09;;;;;;;;;;;;;;;15.46;46.95;98984.00;4977077;28;1120;-44
2023/11/29 01:54:34;;;;;;;;;;;;;;;15.06;47.21;98975.41;4949388;28;1177;-48
2023/11/29 01:57:00;;;;;;;;;;;;;;;14.89;47.60;98988.44;4967767;28;1104;-46
2023/11/29 01:59:25;;;;;;;;;;;;;;;15.28;48.75;98999.84;4977207;28;1299;-48
2023/11/29 02:01:51;;;;;;;;;;;;;;;15.88;47.19;99019.69;4963864;28;1192;-49
2023/11/29 02:04:16;;;;;;;;;;;;;;;16.07;46.78;99028.53;4954851;28;1085;-45
2023/11/29 02:06:42;;;;;;;;;;;;;;;16.08;46.17;99030.19;4968258;28;1971;-48
2023/11/29 02:09:08;;;;;;;;;;;;;;;15.89;46.67;99016.06;4964672;28;1041;-46
2023/11/29 02:11:38;;;;;;;;;;;;;;;15.54;47.70;99017.69;4976908;28;1220;-49
2023/11/29 02:14:04;;;;;;;;;;;;;;;15.47;47.46;99006.84;4974743;28;1057;-44
2023/11/29 02:16:29;;;;;;;;;;;;;;;15.65;47.46;99027.25;4968033;28;1173;-46
2023/11/29 02:18:55;;;;;;;;;;;;;;;15.54;47.36;99020.34;4960918;28;1108;-46
2023/11/29 02:21:23;;;;;;;;;;;;;;;16.13;46.08;99012.00;4969385;28;1057;-47
2023/11/29 02:24:00;;;;;;;;;;;;;;;16.60;44.88;99017.19;4959335;28;1045;-45
2023/11/29 02:26:27;;;;;;;;;;;;;;;16.50;45.27;99014.63;4960330;28;831;-44
2023/11/29 02:28:52;;;;;;;;;;;;;;;16.86;44.31;99029.63;4961946;28;1911;-45
2023/11/29 02:31:18;;;;;;;;;;;;;;;17.01;44.02;99029.91;4967602;28;1223;-46
2023/11/29 02:33:43;;;;;;;;;;;;;;;17.00;44.00;99028.22;4971668;28;1076;-45
2023/11/29 02:36:09;;;;;;;;;;;;;;;16.77;44.31;99045.53;4969498;28;1152;-46
2023/11/29 02:38:34;;;;;;;;;;;;;;;16.47;45.04;99044.13;4965299;28;1065;-46
2023/11/29 02:41:00;;;;;;;;;;;;;;;16.04;45.67;99036.78;4967337;28;1137;-49
2023/11/29 02:43:25;;;;;;;;;;;;;;;15.82;46.38;99025.59;4958458;29;1085;-48
2023/11/29 02:45:51;;;;;;;;;;;;;;;15.32;47.34;99030.34;4958665;28;1037;-45
2023/11/29 02:48:17;;;;;;;;;;;;;;;15.21;48.02;99026.09;4962286;28;1964;-47
2023/11/29 02:50:43;;;;;;;;;;;;;;;15.30;48.13;99038.44;4961231;28;815;-47
2023/11/29 02:53:09;;;;;;;;;;;;;;;15.21;48.04;99047.28;4962834;28;1157;-46
2023/11/29 02:55:34;;;;;;;;;;;;;;;15.31;48.27;99049.88;4966635;28;1056;-45
2023/11/29 02:58:00;;;;;;;;;;;;;;;15.78;46.86;99058.72;4975966;28;1001;-47
2023/11/29 03:00:26;;;;;;;;;;;;;;;15.78;46.99;99069.31;4965329;28;1157;-48
2023/11/29 03:02:52;;;;;;;;;;;;;;;15.91;46.04;99079.56;4970999;28;1089;-42
2023/11/29 03:05:17;;;;;;;;;;;;;;;16.18;45.73;99085.84;4969241;28;1076;-43
2023/11/29 03:07:43;;;;;;;;;;;;;;;16.14;46.04;99093.28;4964369;28;1973;-47
2023/11/29 03:10:08;;;;;;;;;;;;;;;15.65;47.06;99110.25;4966865;28;1111;-47
2023/11/29 03:12:34;;;;;;;;;;;;;;;15.74;46.73;99116.50;4971522;28;1137;-48
2023/11/29 03:14:59;;;;;;;;;;;;;;;15.98;46.18;99135.50;4963692;28;1143;-47
2023/11/29 03:17:25;;;;;;;;;;;;;;;16.21;45.69;99153.69;4957829;28;1009;-45
2023/11/29 03:19:50;;;;;;;;;;;;;;;16.37;44.95;99145.91;4968875;28;1148;-46
2023/11/29 03:22:16;;;;;;;;;;;;;;;16.26;45.21;99136.34;4973508;28;1065;-44
2023/11/29 03:24:44;;;;;;;;;;;;;;;16.00;45.80;99134.41;4968472;28;1177;-44
2023/11/29 03:27:10;;;;;;;;;;;;;;;15.73;46.79;99151.13;4956629;28;1983;-42
2023/11/29 03:29:35;;;;;;;;;;;;;;;15.66;46.62;99150.88;4967758;28;1054;-43
2023/11/29 03:32:01;;;;;;;;;;;;;;;15.33;47.47;99150.41;4976215;28;1200;-48
2023/11/29 03:34:26;;;;;;;;;;;;;;;15.32;47.56;99170.75;4976661;28;1049;-47
2023/11/29 03:36:52;;;;;;;;;;;;;;;15.87;46.62;99171.84;4971746;28;1137;-45
2023/11/29 03:39:19;;;;;;;;;;;;;;;16.26;45.14;99181.47;4976249;28;1288;-47
2023/11/29 03:41:44;;;;;;;;;;;;;;;16.35;44.90;99179.69;4964658;28;1065;-46
2023/11/29 03:44:10;;;;;;;;;;;;;;;16.62;44.47;99182.47;4967103;28;1232;-44
2023/11/29 03:46:35;;;;;;;;;;;;;;;16.96;43.75;99180.94;4974100;28;1273;-47
2023/11/29 03:49:01;;;;;;;;;;;;;;;17.07;43.32;99182.50;4977023;28;1903;-48
2023/11/29 03:51:26;;;;;;;;;;;;;;;16.97;43.50;99183.44;4961187;28;938;-46
2023/11/29 03:53:52;;;;;;;;;;;;;;;16.90;43.94;99190.34;4975829;28;1159;-46
2023/11/29 03:56:18;;;;;;;;;;;;;;;16.61;44.18;99183.44;4976710;28;1041;-46
2023/11/29 03:58:43;;;;;;;;;;;;;;;16.01;45.55;99194.44;4967416;28;1212;-45
2023/11/29 04:01:09;;;;;;;;;;;;;;;15.76;46.10;99207.34;4973931;28;1189;-49
2023/11/29 04:03:34;;;;;;;;;;;;;;;15.37;47.12;99202.97;4967813;28;1080;-49
2023/11/29 04:06:00;;;;;;;;;;;;;;;15.20;47.22;99223.06;4960330;28;1149;-48
2023/11/29 04:08:25;;;;;;;;;;;;;;;14.93;48.01;99228.09;4966978;28;1898;-44
2023/11/29 04:10:51;;;;;;;;;;;;;;;15.54;47.15;99219.13;4964161;28;1149;-46
2023/11/29 04:13:16;;;;;;;;;;;;;;;16.34;45.02;99225.81;4964933;28;1449;-44
2023/11/29 04:15:42;;;;;;;;;;;;;;;16.23;44.84;99218.06;4958685;28;1177;-47
2023/11/29 04:18:08;;;;;;;;;;;;;;;15.74;45.97;99211.94;4967031;28;1311;-48
2023/11/29 04:20:34;;;;;;;;;;;;;;;15.40;46.72;99220.38;4964509;28;1076;-46
2023/11/29 04:22:59;;;;;;;;;;;;;;;15.28;47.54;99230.31;4976469;28;1041;-42
2023/11/29 04:25:25;;;;;;;;;;;;;;;15.47;47.42;99252.44;4972014;28;1061;-46
2023/11/29 04:27:50;;;;;;;;;;;;;;;15.71;46.12;99254.66;4966593;28;1901;-41
2023/11/29 04:30:17;;;;;;;;;;;;;;;15.54;46.73;99262.38;4958838;28;1116;-43
2023/11/29 04:32:42;;;;;;;;;;;;;;;15.29;47.23;99269.91;4966818;28;1113;-45
2023/11/29 04:35:08;;;;;;;;;;;;;;;15.17;47.83;99263.09;4968937;28;1334;-44
2023/11/29 04:37:33;;;;;;;;;;;;;;;15.67;46.29;99275.31;4972846;28;1119;-47
2023/11/29 04:40:00;;;;;;;;;;;;;;;16.27;45.06;99269.84;4974083;28;1203;-40
2023/11/29 04:42:25;;;;;;;;;;;;;;;16.61;44.25;99269.25;4976460;28;1020;-41
2023/11/29 04:44:51;;;;;;;;;;;;;;;16.95;43.44;99272.25;4973421;28;1151;-43
2023/11/29 04:47:16;;;;;;;;;;;;;;;16.70;43.86;99286.09;4959441;28;2443;-43
2023/11/29 04:49:42;;;;;;;;;;;;;;;16.38;44.53;99282.91;4971987;28;1082;-42
2023/11/29 04:52:07;;;;;;;;;;;;;;;15.95;45.22;99290.44;4957760;28;1341;-43
2023/11/29 04:54:33;;;;;;;;;;;;;;;15.59;46.35;99299.03;4960613;28;1533;-43
2023/11/29 04:56:58;;;;;;;;;;;;;;;15.29;47.13;99291.13;4971366;28;1100;-47
2023/11/29 04:59:24;;;;;;;;;;;;;;;15.45;46.78;99302.13;4961607;28;1137;-46
2023/11/29 05:01:49;;;;;;;;;;;;;;;15.08;47.75;99298.34;4959359;28;1155;-48
2023/11/29 05:04:15;;;;;;;;;;;;;;;15.20;47.28;99312.31;4942274;28;934;-43
2023/11/29 05:06:41;;;;;;;;;;;;;;;15.55;46.67;99332.94;4957047;28;1168;-45
2023/11/29 05:09:06;;;;;;;;;;;;;;;15.44;47.11;99343.69;4977315;28;1985;-43
2023/11/29 05:11:32;;;;;;;;;;;;;;;15.63;46.60;99356.09;4964487;28;1039;-41
2023/11/29 05:13:58;;;;;;;;;;;;;;;15.63;46.29;99360.56;4960326;28;1101;-46
2023/11/29 05:16:23;;;;;;;;;;;;;;;15.62;46.33;99356.22;4957990;28;920;-45
2023/11/29 05:18:49;;;;;;;;;;;;;;;15.79;46.25;99365.28;4958472;28;1940;-44
2023/11/29 05:21:14;;;;;;;;;;;;;;;16.44;44.47;99369.09;4958064;28;1137;-44
2023/11/29 05:23:40;;;;;;;;;;;;;;;16.52;44.43;99365.69;4959913;28;1076;-46
2023/11/29 05:26:05;;;;;;;;;;;;;;;16.59;43.98;99366.78;4959001;28;1153;-41
2023/11/29 05:28:33;;;;;;;;;;;;;;;17.06;43.00;99358.84;4959459;28;1907;-45
2023/11/29 05:30:59;;;;;;;;;;;;;;;17.08;42.89;99359.56;4947134;28;1069;-47
2023/11/29 05:33:25;;;;;;;;;;;;;;;17.03;43.02;99360.00;4959448;28;1436;-43
2023/11/29 05:35:53;;;;;;;;;;;;;;;16.77;43.60;99360.69;4955296;28;1098;-46
2023/11/29 05:38:18;;;;;;;;;;;;;;;16.47;44.18;99360.81;4959008;28;1125;-43
2023/11/29 05:40:44;;;;;;;;;;;;;;;15.94;45.01;99365.69;4960143;28;1177;-44
2023/11/29 05:43:10;;;;;;;;;;;;;;;15.51;46.49;99375.78;4958935;28;1073;-44
2023/11/29 05:45:36;;;;;;;;;;;;;;;15.15;46.84;99371.81;4958736;28;1180;-43
2023/11/29 05:48:02;;;;;;;;;;;;;;;15.24;47.31;99380.78;4959454;28;2007;-43
2023/11/29 05:50:28;;;;;;;;;;;;;;;15.41;46.79;99387.19;4954772;28;1181;-48
2023/11/29 05:52:53;;;;;;;;;;;;;;;15.91;46.00;99397.81;4958739;29;1081;-45
2023/11/29 05:55:19;;;;;;;;;;;;;;;16.42;44.73;99402.91;4952131;28;1029;-46
2023/11/29 05:57:45;;;;;;;;;;;;;;;16.40;44.12;99407.50;4955144;28;1054;-44
2023/11/29 06:00:11;;;;;;;;;;;;;;;16.43;44.42;99423.16;4953669;28;1022;-42
2023/11/29 06:02:39;;;;;;;;;;;;;;;15.78;45.81;99412.16;4956269;28;1053;-45
2023/11/29 06:05:05;;;;;;;;;;;;;;;15.51;46.50;99420.81;4954502;28;1192;-45
2023/11/29 06:07:37;;;;;;;;;;;;;;;15.37;46.46;99425.56;4955443;28;1910;-44
2023/11/29 06:10:06;;;;;;;;;;;;;;;15.76;46.08;99440.66;4954769;28;1133;-47
2023/11/29 06:12:33;;;;;;;;;;;;;;;15.89;45.66;99458.09;4955719;28;1070;-46
2023/11/29 06:14:58;;;;;;;;;;;;;;;16.13;45.13;99456.88;4958657;28;1061;-43
2023/11/29 06:17:24;;;;;;;;;;;;;;;16.45;44.25;99471.63;4958552;28;1856;-43
2023/11/29 06:19:50;;;;;;;;;;;;;;;16.56;43.91;99477.75;4956876;28;1136;-46
2023/11/29 06:22:15;;;;;;;;;;;;;;;16.71;43.73;99486.94;4956895;28;1053;-43
2023/11/29 06:24:41;;;;;;;;;;;;;;;16.79;43.54;99498.63;4958382;28;1029;-45
2023/11/29 06:27:06;;;;;;;;;;;;;;;16.93;43.17;99492.03;4956534;28;1990;-43
2023/11/29 06:29:32;;;;;;;;;;;;;;;16.73;43.43;99479.63;4958699;28;1122;-42
2023/11/29 06:31:57;;;;;;;;;;;;;;;16.09;44.67;99495.25;4957428;28;1225;-43
2023/11/29 06:34:23;;;;;;;;;;;;;;;15.61;45.92;99487.09;4958542;28;1002;-44
2023/11/29 06:36:49;;;;;;;;;;;;;;;16.21;45.45;99495.97;4958582;28;1192;-43
2023/11/29 06:39:21;;;;;;;;;;;;;;;16.09;45.60;99505.88;4958018;28;1214;-43
2023/11/29 06:41:47;;;;;;;;;;;;;;;16.69;44.42;99494.19;4945683;28;1053;-49
2023/11/29 06:44:13;;;;;;;;;;;;;;;16.73;44.44;99519.47;4957193;28;893;-46
2023/11/29 06:46:39;;;;;;;;;;;;;;;16.32;45.02;99514.38;4947016;28;1026;-42
2023/11/29 06:49:05;;;;;;;;;;;;;;;16.31;45.37;99525.13;4958071;28;1903;-45
2023/11/29 06:51:31;;;;;;;;;;;;;;;17.00;43.76;99530.31;4969402;28;1018;-44
2023/11/29 06:53:57;;;;;;;;;;;;;;;17.00;43.48;99533.81;4958156;28;1117;-46
2023/11/29 06:56:23;;;;;;;;;;;;;;;16.78;43.83;99553.59;4958646;28;1180;-46
2023/11/29 06:58:48;;;;;;;;;;;;;;;16.48;44.53;99563.41;4958935;28;1073;-45
2023/11/29 07:01:14;;;;;;;;;;;;;;;16.26;45.22;99562.72;4971215;28;1061;-44
2023/11/29 07:03:39;;;;;;;;;;;;;;;16.92;43.73;99568.22;4956975;28;1205;-44
2023/11/29 07:06:05;;;;;;;;;;;;;;;16.88;43.96;99578.28;4971217;28;1049;-44
2023/11/29 07:08:31;;;;;;;;;;;;;;;16.86;43.78;99574.13;4958306;28;1974;-48
2023/11/29 07:10:59;;;;;;;;;;;;;;;16.68;44.25;99585.47;4958090;28;1072;-46
2023/11/29 07:13:25;;;;;;;;;;;;;;;16.61;44.18;99594.97;4957545;28;1022;-43
2023/11/29 07:15:56;;;;;;;;;;;;;;;16.58;44.28;99603.22;4960511;28;1089;-42
2023/11/29 07:18:21;;;;;;;;;;;;;;;16.59;45.20;99611.06;4958282;28;1136;-51
2023/11/29 07:20:47;;;;;;;;;;;;;;;16.95;43.70;99610.44;4958379;28;1031;-42
2023/11/29 07:23:12;;;;;;;;;;;;;;;17.40;42.78;99615.25;4957898;28;1064;-41
2023/11/29 07:25:38;;;;;;;;;;;;;;;17.45;42.62;99607.69;4958190;28;1239;-41
2023/11/29 07:28:04;;;;;;;;;;;;;;;17.57;42.27;99617.13;4957582;28;1915;-45
2023/11/29 07:30:30;;;;;;;;;;;;;;;17.97;41.46;99620.44;4964998;28;1120;-45
2023/11/29 07:32:55;;;;;;;;;;;;;;;18.55;40.50;99606.88;4963746;28;1117;-45
2023/11/29 07:35:21;;;;;;;;;;;;;;;18.42;40.68;99611.75;4958253;28;1116;-47
2023/11/29 07:37:47;;;;;;;;;;;;;;;18.02;41.34;99606.69;4958005;28;1161;-48
2023/11/29 07:40:13;;;;;;;;;;;;;;;17.55;42.48;99597.81;4957557;28;1508;-45
2023/11/29 07:42:38;;;;;;;;;;;;;;;17.18;43.22;99596.03;4957520;28;1125;-46
2023/11/29 07:45:04;;;;;;;;;;;;;;;16.66;44.27;99590.09;4957846;28;1180;-49
2023/11/29 07:47:29;;;;;;;;;;;;;;;16.40;45.20;99590.63;4957459;28;1969;-44
2023/11/29 07:49:55;;;;;;;;;;;;;;;16.53;45.03;99591.19;4957906;28;1030;-44
2023/11/29 07:52:20;;;;;;;;;;;;;;;16.61;44.57;99598.47;4957406;28;1008;-45
2023/11/29 07:54:46;;;;;;;;;;;;;;;17.18;43.28;99599.53;4957511;28;1076;-46
2023/11/29 07:57:12;;;;;;;;;;;;;;;16.92;43.91;99602.75;4958075;28;1268;-43
2023/11/29 07:59:37;;;;;;;;;;;;;;;16.35;45.16;99606.16;4958166;28;1374;-45
2023/11/29 08:02:03;;;;;;;;;;;;;;;16.18;45.84;99611.19;4957836;28;1108;-44
2023/11/29 08:04:29;;;;;;;;;;;;;;;16.93;44.11;99604.47;4957094;28;1268;-44
2023/11/29 08:06:54;;;;;;;;;;;;;;;17.24;43.06;99600.75;4958126;28;1975;-47
2023/11/29 08:09:20;;;;;;;;;;;;;;;16.83;43.99;99611.59;4957311;28;1346;-48
2023/11/29 08:11:46;;;;;;;;;;;;;;;16.34;44.81;99607.97;4957969;28;1311;-47
2023/11/29 08:14:11;;;;;;;;;;;;;;;16.21;45.41;99615.38;4957719;28;1362;-48
2023/11/29 08:16:37;;;;;;;;;;;;;;;17.00;43.75;99621.47;4957101;28;1121;-51
2023/11/29 08:19:02;;;;;;;;;;;;;;;17.28;42.99;99626.06;4957580;29;1362;-49
2023/11/29 08:21:28;;;;;;;;;;;;;;;17.06;43.46;99629.88;4957531;28;1073;-50
2023/11/29 08:23:53;;;;;;;;;;;;;;;16.90;43.65;99620.66;4961255;28;1252;-48
2023/11/29 08:26:19;;;;;;;;;;;;;;;16.52;44.66;99623.19;4961280;28;1258;-45
2023/11/29 08:28:44;;;;;;;;;;;;;;;16.68;44.29;99633.28;4957106;28;1898;-50
2023/11/29 08:31:10;;;;;;;;;;;;;;;17.12;43.00;99624.00;4959674;28;1062;-48
2023/11/29 08:33:35;;;;;;;;;;;;;;;17.05;43.15;99628.19;4977164;28;1070;-46
2023/11/29 08:36:02;;;;;;;;;;;;;;;16.68;43.94;99627.97;4966390;28;1101;-44
2023/11/29 08:38:28;;;;;;;;;;;;;;;16.60;44.53;99614.56;4959263;28;1121;-49
2023/11/29 08:40:53;;;;;;;;;;;;;;;16.38;44.82;99622.63;4959642;28;887;-50
2023/11/29 08:43:19;;;;;;;;;;;;;;;16.81;44.49;99624.16;4959150;28;1478;-50
2023/11/29 08:45:44;;;;;;;;;;;;;;;17.45;42.79;99613.00;4959338;28;1472;-46
2023/11/29 08:48:10;;;;;;;;;;;;;;;17.96;42.00;99617.94;4960562;28;1910;-45
2023/11/29 08:50:35;;;;;;;;;;;;;;;17.59;42.68;99625.81;4960912;28;1303;-47
2023/11/29 08:53:01;;;;;;;;;;;;;;;17.61;43.06;99625.66;4960830;28;1124;-45
2023/11/29 08:55:27;;;;;;;;;;;;;;;17.12;44.10;99622.19;4960402;29;1342;-46
2023/11/29 08:57:53;;;;;;;;;;;;;;;17.15;44.01;99636.19;4960632;28;1129;-48
2023/11/29 09:00:21;;;;;;;;;;;;;;;16.82;44.72;99633.81;4960367;28;1315;-50
2023/11/29 09:02:47;;;;;;;;;;;;;;;17.08;44.13;99631.38;4960523;28;1267;-50
2023/11/29 09:05:12;;;;;;;;;;;;;;;17.14;44.19;99638.00;4960030;28;1112;-49
2023/11/29 09:07:38;;;;;;;;;;;;;;;17.27;43.80;99643.00;4960564;28;1902;-48
2023/11/29 09:10:05;;;;;;;;;;;;;;;17.28;43.72;99636.72;4960140;28;1065;-44
2023/11/29 09:12:31;;;;;;;;;;;;;;;17.45;43.29;99648.38;4960554;28;1157;-46
2023/11/29 09:14:56;;;;;;;;;;;;;;;17.46;43.36;99646.56;4960463;28;1192;-44
2023/11/29 09:17:22;;;;;;;;;;;;;;;17.71;42.94;99647.75;4959828;28;886;-47
2023/11/29 09:19:49;;;;;;;;;;;;;;;17.79;42.67;99660.31;4960239;28;1240;-47
2023/11/29 09:22:14;;;;;;;;;;;;;;;17.85;42.66;99656.22;4960035;28;1424;-46
2023/11/29 09:24:40;;;;;;;;;;;;;;;18.26;41.96;99644.38;4959743;28;1148;-47
2023/11/29 09:27:05;;;;;;;;;;;;;;;18.45;41.74;99654.06;4959679;28;1985;-42
2023/11/29 09:29:32;;;;;;;;;;;;;;;18.73;41.16;99652.13;4959127;28;1093;-52
2023/11/29 09:31:58;;;;;;;;;;;;;;;18.21;42.44;99640.38;4959663;28;1252;-59
2023/11/29 09:34:24;;;;;;;;;;;;;;;18.36;42.45;99642.50;4959413;28;1136;-58
2023/11/29 09:36:50;;;;;;;;;;;;;;;18.45;42.28;99643.44;4959566;28;1272;-51
2023/11/29 09:39:17;;;;;;;;;;;;;;;18.56;42.39;99640.53;4959439;28;1161;-48
2023/11/29 09:41:46;;;;;;;;;;;;;;;18.70;42.21;99638.31;4958080;28;1076;-57
2023/11/29 09:44:12;;;;;;;;;;;;;;;18.43;43.03;99640.06;4959301;28;1135;-59
2023/11/29 09:46:37;;;;;;;;;;;;;;;18.55;42.86;99630.84;4959910;28;1053;-50
2023/11/29 09:49:03;;;;;;;;;;;;;;;18.80;42.29;99631.06;4957848;28;1914;-58
2023/11/29 09:51:29;;;;;;;;;;;;;;;18.85;42.16;99638.59;4959724;28;1041;-55
2023/11/29 09:53:54;;;;;;;;;;;;;;;18.65;42.71;99640.59;4958357;28;936;-50
2023/11/29 09:56:20;;;;;;;;;;;;;;;18.44;43.28;99644.38;4959602;28;1049;-55
2023/11/29 09:58:45;;;;;;;;;;;;;;;18.71;42.73;99640.81;4956986;28;1444;-55
2023/11/29 10:01:14;;;;;;;;;;;;;;;18.60;43.18;99641.06;4959402;28;1134;-47
2023/11/29 10:03:40;;;;;;;;;;;;;;;18.53;43.61;99643.50;4958167;28;1279;-51
2023/11/29 10:06:05;;;;;;;;;;;;;;;18.25;44.29;99659.50;4959209;28;954;-50
2023/11/29 10:08:31;;;;;;;;;;;;;;;18.19;44.58;99654.78;4958782;28;1938;-50
2023/11/29 10:10:57;;;;;;;;;;;;;;;17.96;45.01;99661.34;4957934;29;1134;-59
2023/11/29 10:13:22;;;;;;;;;;;;;;;18.28;44.50;99656.56;4959174;28;1335;-52
2023/11/29 10:15:51;;;;;;;;;;;;;;;18.18;44.62;99655.78;4959132;28;1208;-52
2023/11/29 10:18:18;;;;;;;;;;;;;;;18.46;44.25;99659.25;4958977;28;889;-50
2023/11/29 10:20:48;;;;;;;;;;;;;;;18.41;44.40;99640.22;4957409;28;1053;-50
2023/11/29 10:23:13;;;;;;;;;;;;;;;18.54;44.34;99637.16;4958813;29;1073;-53
2023/11/29 10:25:39;;;;;;;;;;;;;;;18.79;43.76;99629.38;4959088;28;1126;-49
2023/11/29 10:28:04;;;;;;;;;;;;;;;19.07;43.16;99636.41;4958847;28;1996;-47
2023/11/29 10:30:30;;;;;;;;;;;;;;;19.34;42.80;99639.94;4957758;28;1217;-42
2023/11/29 10:32:55;;;;;;;;;;;;;;;19.24;42.78;99623.22;4959009;28;1120;-51
2023/11/29 10:35:21;;;;;;;;;;;;;;;19.27;42.89;99629.06;4957471;28;1220;-45
2023/11/29 10:37:48;;;;;;;;;;;;;;;18.93;43.69;99627.16;4958340;28;1310;-52
2023/11/29 10:40:15;;;;;;;;;;;;;;;19.23;43.28;99630.41;4957789;28;1054;-51
2023/11/29 10:42:44;;;;;;;;;;;;;;;18.93;43.72;99621.84;4958874;28;1084;-50
2023/11/29 10:45:10;;;;;;;;;;;;;;;17.73;45.96;99626.31;4958166;28;1120;-50
2023/11/29 10:47:37;;;;;;;;;;;;;;;17.66;46.45;99619.91;4957154;28;1903;-49
2023/11/29 10:50:06;;;;;;;;;;;;;;;17.30;46.92;99625.94;4957665;28;1181;-51
2023/11/29 10:52:33;;;;;;;;;;;;;;;17.19;46.25;99626.91;4956583;28;1023;-49
2023/11/29 10:54:58;;;;;;;;;;;;;;;16.74;46.91;99631.88;4957371;28;1078;-47
2023/11/29 10:57:43;;;;;;;;;;;;;;;16.96;47.49;99635.19;4956594;28;1034;-51
2023/11/29 11:00:15;;;;;;;;;;;;;;;17.94;46.96;99657.16;4955455;28;998;-48
2023/11/29 11:02:47;;;;;;;;;;;;;;;18.00;46.88;99669.84;4956450;28;1065;-49
2023/11/29 11:05:14;;;;;;;;;;;;;;;18.10;46.02;99675.16;4957139;28;1115;-50
2023/11/29 11:07:40;;;;;;;;;;;;;;;17.83;46.46;99682.94;4957123;28;1973;-44
2023/11/29 11:10:12;;;;;;;;;;;;;;;16.84;48.81;99684.97;4958713;28;1125;-53
2023/11/29 11:12:38;;;;;;;;;;;;;;;17.14;49.12;99693.78;4958621;28;1153;-48
2023/11/29 11:15:11;;;;;;;;;;;;;;;17.73;47.36;99695.47;4958165;28;1084;-45
2023/11/29 11:17:37;;;;;;;;;;;;;;;17.47;48.05;99704.06;4957465;28;1058;-49
2023/11/29 11:20:06;;;;;;;;;;;;;;;17.65;47.04;99712.13;4958097;28;1065;-51
2023/11/29 11:22:33;;;;;;;;;;;;;;;17.89;46.24;99715.28;4958258;28;1049;-48
2023/11/29 11:25:03;;;;;;;;;;;;;;;18.24;44.65;99724.41;4956671;28;1265;-49
2023/11/29 11:27:28;;;;;;;;;;;;;;;17.39;47.13;99702.16;4957973;28;1906;-48
2023/11/29 11:29:54;;;;;;;;;;;;;;;17.25;47.45;99706.91;4968444;28;1066;-47
2023/11/29 11:32:35;;;;;;;;;;;;;;;17.13;47.46;99698.25;4958054;28;1124;-46
2023/11/29 11:35:16;;;;;;;;;;;;;;;17.07;47.61;99712.09;4958012;28;1141;-49
2023/11/29 11:37:44;;;;;;;;;;;;;;;17.25;47.30;99722.03;4957921;28;1145;-45
2023/11/29 11:40:11;;;;;;;;;;;;;;;17.34;46.90;99729.16;4957891;28;1236;-47
2023/11/29 11:42:37;;;;;;;;;;;;;;;17.39;46.68;99726.06;4957070;28;899;-46
2023/11/29 11:45:03;;;;;;;;;;;;;;;17.56;46.15;99743.13;4958333;28;1318;-48
2023/11/29 11:47:30;;;;;;;;;;;;;;;17.74;45.57;99742.34;4957909;28;1963;-46
2023/11/29 11:49:56;;;;;;;;;;;;;;;17.79;45.44;99744.59;4955573;29;1252;-48
2023/11/29 11:52:22;;;;;;;;;;;;;;;17.94;44.97;99742.28;4957707;28;1073;-47
2023/11/29 11:54:47;;;;;;;;;;;;;;;18.05;44.68;99746.59;4953208;28;1010;-45
2023/11/29 11:57:13;;;;;;;;;;;;;;;18.14;44.43;99747.56;4960839;28;1038;-45
2023/11/29 11:59:39;;;;;;;;;;;;;;;18.21;44.24;99730.88;4961885;28;1172;-47
2023/11/29 12:02:04;;;;;;;;;;;;;;;18.16;44.26;99733.13;4957989;28;1033;-47
2023/11/29 12:04:30;;;;;;;;;;;;;;;18.12;44.37;99739.69;4959992;28;1102;-49
2023/11/29 12:06:56;;;;;;;;;;;;;;;18.22;44.05;99732.53;4961785;28;1070;-49
2023/11/29 12:09:21;;;;;;;;;;;;;;;18.29;43.91;99735.44;4959774;29;1910;-48
2023/11/29 12:11:47;;;;;;;;;;;;;;;18.43;43.72;99741.25;4960787;28;1036;-46
2023/11/29 12:14:15;;;;;;;;;;;;;;;18.34;43.64;99750.97;4961249;28;1118;-50
2023/11/29 12:16:41;;;;;;;;;;;;;;;18.38;43.69;99747.03;4960355;28;1311;-49
2023/11/29 12:19:07;;;;;;;;;;;;;;;17.97;44.30;99747.31;4961383;28;1048;-46
2023/11/29 12:21:32;;;;;;;;;;;;;;;17.76;44.59;99767.00;4960654;28;1061;-49
2023/11/29 12:24:04;;;;;;;;;;;;;;;17.31;45.49;99765.81;4960382;29;1383;-48
2023/11/29 12:26:30;;;;;;;;;;;;;;;16.75;46.59;99758.34;4961444;28;1310;-47
2023/11/29 12:28:58;;;;;;;;;;;;;;;16.72;46.70;99756.81;4960411;28;1981;-45
2023/11/29 12:31:24;;;;;;;;;;;;;;;16.93;46.95;99763.84;4960484;28;1082;-44
2023/11/29 12:33:49;;;;;;;;;;;;;;;17.63;44.95;99756.69;4959798;29;1118;-47
2023/11/29 12:36:15;;;;;;;;;;;;;;;17.45;45.17;99760.06;4960623;28;1129;-45
2023/11/29 12:38:40;;;;;;;;;;;;;;;17.90;44.06;99763.03;4964463;28;1118;-52
2023/11/29 12:41:06;;;;;;;;;;;;;;;17.61;44.91;99769.28;4968650;28;1093;-49
2023/11/29 12:43:31;;;;;;;;;;;;;;;17.46;45.17;99775.03;4960523;28;942;-50
2023/11/29 12:45:57;;;;;;;;;;;;;;;17.42;45.43;99781.63;4960878;28;1287;-44
2023/11/29 12:48:25;;;;;;;;;;;;;;;17.35;45.54;99783.19;4960818;29;1914;-45
2023/11/29 12:50:51;;;;;;;;;;;;;;;17.71;44.97;99794.03;4961298;28;1065;-46